createdAt,value
2019-01-31T00:02:28.431Z,22.8
2019-01-31T00:05:34.347Z,22.8
2019-01-31T00:08:45.713Z,22.8
2019-01-31T00:11:52.146Z,22.8
2019-01-31T00:14:58.049Z,22.7
2019-01-31T00:18:04.031Z,22.7
2019-01-31T00:21:09.969Z,22.7
2019-01-31T00:24:15.885Z,22.7
2019-01-31T00:27:21.882Z,22.7
2019-01-31T00:30:27.734Z,22.7
2019-01-31T00:33:33.727Z,22.7
2019-01-31T00:36:39.738Z,22.7
2019-01-31T00:39:45.669Z,22.6
2019-01-31T00:42:51.630Z,22.6
2019-01-31T00:45:57.538Z,22.6
2019-01-31T00:49:03.468Z,22.6
2019-01-31T00:52:09.361Z,22.6
2019-01-31T00:55:15.304Z,22.6
2019-01-31T00:58:21.174Z,22.6
2019-01-31T01:01:27.186Z,22.6
2019-01-31T01:04:33.098Z,22.6
2019-01-31T01:07:39.016Z,22.5
2019-01-31T01:10:44.966Z,22.5
2019-01-31T01:13:50.970Z,22.5
2019-01-31T01:16:56.883Z,22.5
2019-01-31T01:20:02.928Z,22.5
2019-01-31T01:23:09.066Z,22.5
2019-01-31T01:26:14.989Z,22.5
2019-01-31T01:29:20.878Z,22.5
2019-01-31T01:32:26.966Z,22.5
2019-01-31T01:35:33.003Z,22.5
2019-01-31T01:38:38.921Z,22.5
2019-01-31T01:41:44.897Z,22.5
2019-01-31T01:44:50.772Z,22.5
2019-01-31T01:47:56.789Z,22.5
2019-01-31T01:51:02.858Z,22.5
2019-01-31T01:54:08.803Z,22.5
2019-01-31T01:57:14.872Z,22.5
2019-01-31T02:00:20.814Z,22.5
2019-01-31T02:03:26.781Z,22.5
2019-01-31T02:06:33.009Z,22.5
2019-01-31T02:09:38.970Z,22.5
2019-01-31T02:12:44.882Z,22.5
2019-01-31T02:15:50.856Z,22.6
2019-01-31T02:18:56.786Z,22.6
2019-01-31T02:22:02.778Z,22.6
2019-01-31T02:25:08.659Z,22.7
2019-01-31T02:28:14.571Z,22.7
2019-01-31T02:31:20.480Z,22.7
2019-01-31T02:34:26.483Z,22.8
2019-01-31T02:37:32.456Z,22.8
2019-01-31T02:40:38.520Z,22.8
2019-01-31T02:43:44.416Z,22.8
2019-01-31T02:46:50.520Z,22.9
2019-01-31T02:49:56.509Z,22.9
2019-01-31T02:53:02.395Z,22.9
2019-01-31T02:56:11.403Z,22.9
2019-01-31T02:59:17.380Z,22.9
2019-01-31T03:02:23.422Z,23
2019-01-31T03:05:29.326Z,23
2019-01-31T03:08:35.312Z,23
2019-01-31T03:11:41.326Z,23
2019-01-31T03:14:47.335Z,23
2019-01-31T03:17:53.366Z,23
2019-01-31T03:20:59.465Z,23
2019-01-31T03:24:05.469Z,23
2019-01-31T03:27:11.377Z,23.1
2019-01-31T03:30:17.297Z,23.1
2019-01-31T03:33:28.445Z,23.1
2019-01-31T03:36:34.377Z,23.1
2019-01-31T03:39:40.360Z,23.1
2019-01-31T03:42:46.334Z,23.1
2019-01-31T03:45:52.235Z,23.1
2019-01-31T03:48:58.320Z,23.2
2019-01-31T03:52:04.234Z,23.2
2019-01-31T03:55:10.215Z,23.3
2019-01-31T03:58:16.241Z,23.3
2019-01-31T04:01:22.239Z,23.4
2019-01-31T04:04:28.232Z,23.4
2019-01-31T04:07:34.117Z,23.5
2019-01-31T04:10:40.169Z,23.5
2019-01-31T04:13:46.097Z,23.6
2019-01-31T04:16:52.004Z,23.6
2019-01-31T04:19:57.929Z,23.6
2019-01-31T04:23:03.865Z,23.7
2019-01-31T04:26:09.874Z,23.7
2019-01-31T04:29:15.832Z,23.7
2019-01-31T04:32:21.925Z,23.8
2019-01-31T04:35:27.850Z,23.8
2019-01-31T04:38:33.955Z,23.8
2019-01-31T04:41:40.077Z,23.9
2019-01-31T04:44:46.128Z,23.9
2019-01-31T04:47:52.122Z,23.9
2019-01-31T04:51:01.242Z,23.9
2019-01-31T04:54:07.174Z,24
2019-01-31T04:57:13.116Z,24
2019-01-31T05:00:19.005Z,24
2019-01-31T05:03:24.956Z,24
2019-01-31T05:06:30.821Z,24.1
2019-01-31T05:09:36.820Z,24.1
2019-01-31T05:12:42.741Z,24.1
2019-01-31T05:15:48.952Z,24.1
2019-01-31T05:18:54.981Z,24.1
2019-01-31T05:22:01.008Z,24.2
2019-01-31T05:25:06.955Z,24.1
2019-01-31T05:28:12.937Z,24.2
2019-01-31T05:31:21.763Z,24.2
2019-01-31T05:34:27.734Z,24.3
2019-01-31T05:37:33.760Z,24.3
2019-01-31T05:40:39.759Z,24.3
2019-01-31T05:43:58.471Z,24.3
2019-01-31T05:47:04.556Z,24.3
2019-01-31T05:50:10.613Z,24.3
2019-01-31T05:53:16.582Z,24.3
2019-01-31T05:56:22.512Z,24.4
2019-01-31T05:59:28.797Z,24.4
2019-01-31T06:02:34.683Z,24.4
2019-01-31T06:05:40.728Z,24.4
2019-01-31T06:08:46.716Z,24.5
2019-01-31T06:11:52.916Z,24.4
2019-01-31T06:14:58.888Z,24.5
2019-01-31T06:18:04.826Z,24.5
2019-01-31T06:21:10.795Z,24.5
2019-01-31T06:24:16.815Z,24.5
2019-01-31T06:27:23.009Z,24.6
2019-01-31T06:30:29.134Z,24.6
2019-01-31T06:33:34.993Z,24.6
2019-01-31T06:36:40.931Z,24.7
2019-01-31T06:39:46.971Z,24.9
2019-01-31T06:42:52.924Z,24.9
2019-01-31T06:45:58.892Z,25
2019-01-31T06:49:04.900Z,25
2019-01-31T06:52:11.823Z,25.1
2019-01-31T06:55:17.787Z,25.1
2019-01-31T06:58:23.869Z,25.1
2019-01-31T07:01:29.756Z,25.1
2019-01-31T07:04:35.786Z,25.1
2019-01-31T07:07:41.766Z,25.2
2019-01-31T07:10:47.696Z,25.3
2019-01-31T07:13:53.678Z,25.4
2019-01-31T07:16:59.600Z,25.4
2019-01-31T07:20:05.558Z,25.4
2019-01-31T07:23:11.521Z,25.3
2019-01-31T07:26:18.432Z,25.4
2019-01-31T07:29:24.351Z,25.5
2019-01-31T07:32:30.378Z,25.6
2019-01-31T07:35:36.548Z,25.6
2019-01-31T07:38:42.608Z,25.6
2019-01-31T07:41:48.460Z,25.6
2019-01-31T07:44:54.378Z,25.7
2019-01-31T07:48:00.776Z,25.7
2019-01-31T07:51:06.993Z,25.8
2019-01-31T07:54:13.024Z,25.8
2019-01-31T07:57:20.220Z,25.9
2019-01-31T08:00:26.750Z,26
2019-01-31T08:03:32.801Z,26
2019-01-31T08:06:42.010Z,25.9
2019-01-31T08:09:48.499Z,25.9
2019-01-31T08:12:57.344Z,25.9
2019-01-31T08:16:03.403Z,25.9
2019-01-31T08:19:09.604Z,25.9
2019-01-31T08:22:15.576Z,26
2019-01-31T08:25:21.685Z,26
2019-01-31T08:28:27.707Z,25.9
2019-01-31T08:31:33.802Z,26
2019-01-31T08:34:39.932Z,26
2019-01-31T08:37:48.553Z,26
2019-01-31T08:40:54.611Z,26
2019-01-31T08:44:00.676Z,26
2019-01-31T08:47:06.824Z,26
2019-01-31T08:50:12.993Z,26
2019-01-31T08:53:19.429Z,25.9
2019-01-31T08:56:25.948Z,26
2019-01-31T08:59:32.428Z,26
2019-01-31T09:02:39.074Z,26
2019-01-31T09:05:45.623Z,26
2019-01-31T09:08:51.556Z,26
2019-01-31T09:11:57.854Z,26
2019-01-31T09:15:15.619Z,26
2019-01-31T09:18:21.631Z,26.1
2019-01-31T09:21:30.267Z,26
2019-01-31T09:24:36.228Z,26
2019-01-31T09:27:45.093Z,26
2019-01-31T09:30:51.027Z,26
2019-01-31T09:33:57.101Z,26
2019-01-31T09:37:03.096Z,26
2019-01-31T09:40:09.142Z,26
2019-01-31T09:43:15.006Z,26
2019-01-31T09:46:21.023Z,26
2019-01-31T09:49:27.031Z,26
2019-01-31T09:52:33.133Z,26
2019-01-31T09:55:39.245Z,26
2019-01-31T09:58:45.102Z,26
2019-01-31T10:01:52.554Z,26
2019-01-31T10:04:58.636Z,26
2019-01-31T10:08:04.722Z,26
2019-01-31T10:11:10.679Z,26
2019-01-31T10:14:16.977Z,26
2019-01-31T10:17:23.118Z,26
2019-01-31T10:20:29.549Z,25.9
2019-01-31T10:23:35.597Z,25.9
2019-01-31T10:26:42.055Z,25.9
2019-01-31T10:29:47.951Z,25.9
2019-01-31T10:32:56.794Z,25.9
2019-01-31T10:36:05.469Z,25.9
2019-01-31T10:39:11.876Z,26
2019-01-31T10:42:17.924Z,26
2019-01-31T10:45:24.653Z,26
2019-01-31T10:48:30.685Z,26
2019-01-31T10:51:36.797Z,26
2019-01-31T10:54:43.764Z,26
2019-01-31T10:57:49.748Z,26
2019-01-31T11:00:55.979Z,26
2019-01-31T11:04:01.985Z,26
2019-01-31T11:07:08.000Z,26.1
2019-01-31T11:10:14.079Z,26.1
2019-01-31T11:13:20.060Z,26.1
2019-01-31T11:16:26.079Z,26
2019-01-31T11:19:32.117Z,26
2019-01-31T11:22:38.105Z,26
2019-01-31T11:25:44.227Z,26
2019-01-31T11:28:50.245Z,26
2019-01-31T11:31:58.183Z,26
2019-01-31T11:35:04.214Z,26
2019-01-31T11:38:10.288Z,26.1
2019-01-31T11:41:16.221Z,26
2019-01-31T11:44:24.150Z,26.1
2019-01-31T11:47:30.255Z,26.1
2019-01-31T11:50:36.406Z,26
2019-01-31T11:53:42.530Z,26
2019-01-31T11:56:48.493Z,26.1
2019-01-31T12:00:05.765Z,26.1
2019-01-31T12:03:11.835Z,26
2019-01-31T12:06:18.902Z,26.1
2019-01-31T12:09:24.870Z,26
2019-01-31T12:12:30.826Z,26.1
2019-01-31T12:15:36.918Z,26.2
2019-01-31T12:18:43.071Z,26.2
2019-01-31T12:21:49.067Z,26.2
2019-01-31T12:24:55.295Z,26.2
2019-01-31T12:28:01.609Z,26.2
2019-01-31T12:31:07.682Z,26.1
2019-01-31T12:34:13.741Z,26.2
2019-01-31T12:37:21.322Z,26.2
2019-01-31T12:40:27.283Z,26.2
2019-01-31T12:43:34.906Z,26.2
2019-01-31T12:46:41.444Z,26.2
2019-01-31T12:49:47.480Z,26.2
2019-01-31T12:52:53.521Z,26.2
2019-01-31T12:55:59.445Z,26.2
2019-01-31T12:59:05.571Z,26.1
2019-01-31T13:02:11.645Z,26.2
2019-01-31T13:05:17.517Z,26.2
2019-01-31T13:08:23.526Z,26.2
2019-01-31T13:11:29.427Z,26.1
2019-01-31T13:14:35.418Z,26.1
2019-01-31T13:17:41.509Z,26.1
2019-01-31T13:20:47.464Z,26.1
2019-01-31T13:23:53.404Z,26.1
2019-01-31T13:26:59.464Z,26
2019-01-31T13:30:05.774Z,26
2019-01-31T13:33:11.721Z,26
2019-01-31T13:36:17.824Z,26
2019-01-31T13:39:23.823Z,26
2019-01-31T13:42:29.733Z,26
2019-01-31T13:45:35.782Z,26
2019-01-31T13:48:42.081Z,25.9
2019-01-31T13:51:48.266Z,25.9
2019-01-31T13:54:54.342Z,25.9
2019-01-31T13:58:00.561Z,25.9
2019-01-31T14:01:06.625Z,25.9
2019-01-31T14:04:12.538Z,25.9
2019-01-31T14:07:18.514Z,25.9
2019-01-31T14:10:28.773Z,25.9
2019-01-31T14:13:34.836Z,25.9
2019-01-31T14:16:47.415Z,25.9
2019-01-31T14:19:53.836Z,25.9
2019-01-31T14:22:59.992Z,25.9
2019-01-31T14:26:06.022Z,25.9
2019-01-31T14:29:12.098Z,25.9
2019-01-31T14:32:18.111Z,25.9
2019-01-31T14:35:24.346Z,25.9
2019-01-31T14:38:30.313Z,25.9
2019-01-31T14:41:36.223Z,25.8
2019-01-31T14:44:42.150Z,25.8
2019-01-31T14:47:48.094Z,25.8
2019-01-31T14:50:57.087Z,25.9
2019-01-31T14:54:03.066Z,25.9
2019-01-31T14:57:09.077Z,25.9
2019-01-31T15:00:15.081Z,26
2019-01-31T15:03:21.105Z,26.1
2019-01-31T15:06:27.091Z,26.1
2019-01-31T15:09:33.254Z,26.2
2019-01-31T15:12:39.235Z,26.2
2019-01-31T15:15:45.169Z,26.2
2019-01-31T15:18:52.072Z,26.2
2019-01-31T15:21:58.159Z,26.1
2019-01-31T15:25:04.194Z,26.1
2019-01-31T15:28:10.288Z,26.1
2019-01-31T15:31:16.328Z,26.1
2019-01-31T15:34:22.370Z,26.1
2019-01-31T15:37:28.384Z,26.1
2019-01-31T15:40:34.407Z,26.1
2019-01-31T15:43:40.397Z,26.1
2019-01-31T15:46:46.313Z,26.1
2019-01-31T15:49:52.318Z,26.2
2019-01-31T15:52:58.352Z,26.2
2019-01-31T15:56:04.380Z,26.2
2019-01-31T15:59:12.837Z,26.2
2019-01-31T16:02:19.023Z,26.2
2019-01-31T16:05:25.023Z,26.2
2019-01-31T16:08:30.918Z,26.2
2019-01-31T16:11:36.876Z,26.1
2019-01-31T16:14:54.268Z,26.1
2019-01-31T16:18:00.961Z,26.1
2019-01-31T16:21:07.098Z,26
2019-01-31T16:24:13.015Z,26
2019-01-31T16:27:19.032Z,26
2019-01-31T16:30:27.668Z,26.1
2019-01-31T16:33:33.595Z,26.1
2019-01-31T16:36:39.597Z,26
2019-01-31T16:39:45.463Z,25.9
2019-01-31T16:42:51.357Z,25.9
2019-01-31T16:45:57.225Z,25.9
2019-01-31T16:49:03.329Z,25.9
2019-01-31T16:52:09.434Z,25.9
2019-01-31T16:55:18.344Z,25.8
2019-01-31T16:58:24.355Z,25.9
2019-01-31T17:01:30.416Z,25.9
2019-01-31T17:04:36.262Z,25.9
2019-01-31T17:07:42.336Z,25.9
2019-01-31T17:10:48.335Z,25.8
2019-01-31T17:13:54.201Z,25.8
2019-01-31T17:17:00.129Z,25.8
2019-01-31T17:20:06.068Z,25.7
2019-01-31T17:23:11.967Z,25.6
2019-01-31T17:26:17.967Z,25.7
2019-01-31T17:29:24.260Z,25.6
2019-01-31T17:32:30.276Z,25.6
2019-01-31T17:35:36.221Z,25.6
2019-01-31T17:38:42.201Z,25.5
2019-01-31T17:41:48.245Z,25.5
2019-01-31T17:44:54.333Z,25.5
2019-01-31T17:48:00.265Z,25.5
2019-01-31T17:51:06.199Z,25.5
2019-01-31T17:54:12.175Z,25.4
2019-01-31T17:57:18.392Z,25.4
2019-01-31T18:00:24.613Z,25.4
2019-01-31T18:03:30.763Z,25.4
2019-01-31T18:06:36.785Z,25.3
2019-01-31T18:09:42.699Z,25.3
2019-01-31T18:12:48.623Z,25.3
2019-01-31T18:15:54.603Z,25.3
2019-01-31T18:19:00.468Z,25.2
2019-01-31T18:22:06.444Z,25.2
2019-01-31T18:25:12.384Z,25.2
2019-01-31T18:28:18.390Z,25.2
2019-01-31T18:31:24.302Z,25.2
2019-01-31T18:34:30.247Z,25.1
2019-01-31T18:37:36.171Z,25.1
2019-01-31T18:40:42.087Z,25.1
2019-01-31T18:43:48.008Z,25.1
2019-01-31T18:46:54.014Z,25.1
2019-01-31T18:49:59.924Z,25
2019-01-31T18:53:05.874Z,25
2019-01-31T18:56:12.070Z,25
2019-01-31T18:59:17.942Z,25
2019-01-31T19:02:23.907Z,25
2019-01-31T19:05:30.052Z,24.9
2019-01-31T19:08:35.989Z,24.9
2019-01-31T19:11:41.951Z,24.9
2019-01-31T19:14:47.943Z,24.9
2019-01-31T19:18:04.449Z,24.9
2019-01-31T19:21:12.037Z,24.9
2019-01-31T19:24:17.994Z,24.8
2019-01-31T19:27:24.018Z,24.8
2019-01-31T19:30:30.118Z,24.8
2019-01-31T19:33:36.105Z,24.8
2019-01-31T19:36:42.099Z,24.8
2019-01-31T19:39:48.080Z,24.7
2019-01-31T19:42:54.252Z,24.7
2019-01-31T19:46:00.203Z,24.7
2019-01-31T19:49:18.180Z,24.7
2019-01-31T19:52:24.096Z,24.7
2019-01-31T19:55:29.999Z,24.7
2019-01-31T19:58:36.009Z,24.6
2019-01-31T20:01:42.040Z,24.6
2019-01-31T20:04:48.002Z,24.6
2019-01-31T20:07:53.919Z,24.6
2019-01-31T20:10:59.946Z,24.6
2019-01-31T20:14:06.259Z,24.5
2019-01-31T20:17:12.297Z,24.5
2019-01-31T20:20:18.282Z,24.5
2019-01-31T20:23:24.200Z,24.5
2019-01-31T20:26:30.201Z,24.5
2019-01-31T20:29:36.186Z,24.5
2019-01-31T20:32:42.171Z,24.4
2019-01-31T20:35:48.140Z,24.4
2019-01-31T20:38:57.027Z,24.4
2019-01-31T20:42:03.086Z,24.4
2019-01-31T20:45:08.941Z,24.4
2019-01-31T20:48:15.007Z,24.4
2019-01-31T20:51:21.054Z,24.4
2019-01-31T20:54:26.970Z,24.3
2019-01-31T20:57:32.936Z,24.3
2019-01-31T21:00:38.873Z,24.3
2019-01-31T21:03:44.799Z,24.3
2019-01-31T21:06:53.802Z,24.3
2019-01-31T21:09:59.883Z,24.3
2019-01-31T21:13:06.007Z,24.3
2019-01-31T21:16:11.976Z,24.3
2019-01-31T21:19:18.019Z,24.2
2019-01-31T21:22:23.950Z,24.2
2019-01-31T21:25:29.974Z,24.2
2019-01-31T21:28:39.179Z,24.2
2019-01-31T21:31:45.185Z,24.2
2019-01-31T21:34:51.049Z,24.2
2019-01-31T21:37:59.763Z,24.2
2019-01-31T21:41:05.747Z,24.2
2019-01-31T21:44:11.812Z,24.1
2019-01-31T21:47:17.963Z,24.1
2019-01-31T21:50:23.900Z,24.1
2019-01-31T21:53:29.789Z,24
2019-01-31T21:56:38.439Z,24
2019-01-31T21:59:44.417Z,23.9
2019-01-31T22:02:50.369Z,23.9
2019-01-31T22:05:56.376Z,23.9
2019-01-31T22:09:02.237Z,23.8
2019-01-31T22:12:08.368Z,23.7
2019-01-31T22:15:14.312Z,23.7
2019-01-31T22:18:20.347Z,23.6
2019-01-31T22:21:26.284Z,23.6
2019-01-31T22:24:32.141Z,23.5
2019-01-31T22:27:41.059Z,23.4
2019-01-31T22:30:47.012Z,23.4
2019-01-31T22:33:52.939Z,23.4
2019-01-31T22:36:58.953Z,23.3
2019-01-31T22:40:04.962Z,23.3
2019-01-31T22:43:11.023Z,23.2
2019-01-31T22:46:17.030Z,23.2
2019-01-31T22:49:26.129Z,23.1
2019-01-31T22:52:32.185Z,23.1
2019-01-31T22:55:38.167Z,23.1
2019-01-31T22:58:44.214Z,23
2019-01-31T23:01:50.112Z,23
2019-01-31T23:04:56.105Z,23
2019-01-31T23:08:02.094Z,22.9
2019-01-31T23:11:08.085Z,22.9
2019-01-31T23:14:14.047Z,22.9
2019-01-31T23:17:20.236Z,22.9
2019-01-31T23:20:37.601Z,22.8
2019-01-31T23:23:47.022Z,22.8
2019-01-31T23:26:53.080Z,22.8
2019-01-31T23:29:59.214Z,22.7
2019-01-31T23:33:05.166Z,22.7
2019-01-31T23:36:11.273Z,22.7
2019-01-31T23:39:17.186Z,22.7
2019-01-31T23:42:23.100Z,22.6
2019-01-31T23:45:29.113Z,22.6
2019-01-31T23:48:35.050Z,22.6
2019-01-31T23:51:40.917Z,22.6
2019-01-31T23:54:46.910Z,22.6
2019-01-31T23:57:52.965Z,22.5
